createdAt,value
2018-05-12T00:02:11.848Z,13.60
2018-05-12T00:04:39.386Z,13.60
2018-05-12T00:07:07.695Z,13.60
2018-05-12T00:09:35.316Z,13.60
2018-05-12T00:12:02.867Z,13.60
2018-05-12T00:14:30.419Z,13.60
2018-05-12T00:16:58.012Z,13.60
2018-05-12T00:19:25.563Z,13.70
2018-05-12T00:21:53.096Z,13.70
2018-05-12T00:24:20.645Z,13.70
2018-05-12T00:26:48.191Z,13.70
2018-05-12T00:29:16.508Z,13.70
2018-05-12T00:31:44.076Z,13.60
2018-05-12T00:34:11.635Z,13.70
2018-05-12T00:36:39.179Z,13.70
2018-05-12T00:39:06.744Z,13.60
2018-05-12T00:41:34.316Z,13.60
2018-05-12T00:44:01.862Z,13.60
2018-05-12T00:46:30.170Z,13.60
2018-05-12T00:48:57.726Z,13.60
2018-05-12T00:51:25.270Z,13.60
2018-05-12T00:53:53.574Z,13.60
2018-05-12T00:56:21.108Z,13.50
2018-05-12T00:58:49.419Z,13.60
2018-05-12T01:01:16.964Z,13.50
2018-05-12T01:03:44.505Z,13.50
2018-05-12T01:06:12.046Z,13.50
2018-05-12T01:08:39.611Z,13.50
2018-05-12T01:11:07.173Z,13.60
2018-05-12T01:13:34.798Z,13.50
2018-05-12T01:16:02.350Z,13.60
2018-05-12T01:18:29.895Z,13.60
2018-05-12T01:20:58.226Z,13.60
2018-05-12T01:23:25.770Z,13.60
2018-05-12T01:25:53.335Z,13.60
2018-05-12T01:28:20.885Z,13.70
2018-05-12T01:30:49.207Z,13.70
2018-05-12T01:33:16.770Z,13.70
2018-05-12T01:35:44.316Z,13.70
2018-05-12T01:38:11.858Z,13.70
2018-05-12T01:40:39.455Z,13.70
2018-05-12T01:43:06.993Z,13.70
2018-05-12T01:45:34.533Z,13.70
2018-05-12T01:48:02.861Z,13.70
2018-05-12T01:50:30.406Z,13.70
2018-05-12T01:52:57.935Z,13.70
2018-05-12T01:55:25.502Z,13.70
2018-05-12T01:57:53.838Z,13.70
2018-05-12T02:00:21.395Z,13.60
2018-05-12T02:02:48.978Z,13.70
2018-05-12T02:05:16.536Z,13.70
2018-05-12T02:07:44.092Z,13.60
2018-05-12T02:10:11.638Z,13.60
2018-05-12T02:12:39.203Z,13.60
2018-05-12T02:15:06.733Z,13.60
2018-05-12T02:17:34.265Z,13.60
2018-05-12T02:20:01.799Z,13.60
2018-05-12T02:22:29.351Z,13.50
2018-05-12T02:24:56.934Z,13.50
2018-05-12T02:27:24.482Z,13.50
2018-05-12T02:29:52.022Z,13.50
2018-05-12T02:32:20.330Z,13.50
2018-05-12T02:34:47.899Z,13.50
2018-05-12T02:37:15.446Z,13.50
2018-05-12T02:39:43.759Z,13.50
2018-05-12T02:42:11.289Z,13.50
2018-05-12T02:44:39.605Z,13.50
2018-05-12T02:47:07.164Z,13.50
2018-05-12T02:49:34.710Z,13.50
2018-05-12T02:52:02.283Z,13.50
2018-05-12T02:54:29.880Z,13.50
2018-05-12T02:56:57.455Z,13.50
2018-05-12T02:59:25.006Z,13.50
2018-05-12T03:01:52.570Z,13.40
2018-05-12T03:04:20.145Z,13.40
2018-05-12T03:06:47.701Z,13.40
2018-05-12T03:09:15.268Z,13.40
2018-05-12T03:11:42.824Z,13.40
2018-05-12T03:14:10.388Z,13.40
2018-05-12T03:16:37.945Z,13.40
2018-05-12T03:19:05.491Z,13.50
2018-05-12T03:21:33.042Z,13.40
2018-05-12T03:24:00.591Z,13.50
2018-05-12T03:26:28.893Z,13.50
2018-05-12T03:28:56.435Z,13.50
2018-05-12T03:31:24.743Z,13.50
2018-05-12T03:33:52.281Z,13.50
2018-05-12T03:36:20.591Z,13.50
2018-05-12T03:38:48.138Z,13.50
2018-05-12T03:41:15.692Z,13.50
2018-05-12T03:43:43.238Z,13.50
2018-05-12T03:46:10.805Z,13.60
2018-05-12T03:48:39.124Z,13.70
2018-05-12T03:51:06.661Z,13.70
2018-05-12T03:53:34.963Z,13.70
2018-05-12T03:56:02.551Z,13.70
2018-05-12T03:58:30.135Z,13.70
2018-05-12T04:00:57.691Z,13.70
2018-05-12T04:03:25.271Z,13.60
2018-05-12T04:06:04.763Z,13.60
2018-05-12T04:08:44.137Z,13.50
2018-05-12T04:11:23.563Z,13.50
2018-05-12T04:13:51.101Z,13.60
2018-05-12T04:16:18.657Z,13.60
2018-05-12T04:18:46.228Z,13.50
2018-05-12T04:21:13.804Z,13.50
2018-05-12T04:23:41.351Z,13.50
2018-05-12T04:26:08.898Z,13.50
2018-05-12T04:28:36.461Z,13.50
2018-05-12T04:31:04.074Z,13.50
2018-05-12T04:33:31.639Z,13.40
2018-05-12T04:35:59.210Z,13.40
2018-05-12T04:38:26.755Z,13.40
2018-05-12T04:40:54.317Z,13.50
2018-05-12T04:43:21.864Z,13.50
2018-05-12T04:45:49.423Z,13.50
2018-05-12T04:48:16.961Z,13.50
2018-05-12T04:50:45.294Z,13.60
2018-05-12T04:53:12.866Z,13.60
2018-05-12T04:55:40.454Z,13.60
2018-05-12T04:58:08.008Z,13.70
2018-05-12T05:00:35.584Z,13.60
2018-05-12T05:03:03.148Z,13.70
2018-05-12T05:05:30.722Z,13.60
2018-05-12T05:07:59.039Z,13.70
2018-05-12T05:10:26.608Z,13.70
2018-05-12T05:12:54.202Z,13.70
2018-05-12T05:15:22.493Z,13.70
2018-05-12T05:17:50.062Z,13.70
2018-05-12T05:20:17.638Z,13.70
2018-05-12T05:22:45.177Z,13.70
2018-05-12T05:25:12.726Z,13.70
2018-05-12T05:27:40.261Z,13.70
2018-05-12T05:30:07.816Z,13.70
2018-05-12T05:32:35.372Z,13.70
2018-05-12T05:35:03.727Z,13.80
2018-05-12T05:37:31.271Z,13.80
2018-05-12T05:39:58.829Z,13.80
2018-05-12T05:42:26.399Z,13.80
2018-05-12T05:44:54.044Z,13.80
2018-05-12T05:47:21.639Z,13.90
2018-05-12T05:49:49.211Z,13.90
2018-05-12T05:52:16.783Z,13.80
2018-05-12T05:54:44.357Z,13.80
2018-05-12T05:57:12.664Z,13.80
2018-05-12T05:59:40.221Z,13.80
2018-05-12T06:02:07.764Z,13.80
2018-05-12T06:04:35.321Z,13.90
2018-05-12T06:07:02.882Z,13.90
2018-05-12T06:09:30.436Z,13.80
2018-05-12T06:11:57.982Z,13.80
2018-05-12T06:14:25.563Z,13.90
2018-05-12T06:16:53.183Z,13.90
2018-05-12T06:19:20.731Z,13.80
2018-05-12T06:21:49.074Z,13.80
2018-05-12T06:24:16.623Z,13.80
2018-05-12T06:26:44.170Z,14.00
2018-05-12T06:29:11.715Z,14.10
2018-05-12T06:31:39.323Z,14.10
2018-05-12T06:34:06.902Z,14.10
2018-05-12T06:36:34.446Z,14.20
2018-05-12T06:39:02.062Z,14.20
2018-05-12T06:41:30.380Z,14.40
2018-05-12T06:43:57.927Z,14.30
2018-05-12T06:46:25.471Z,14.40
2018-05-12T06:48:53.795Z,14.40
2018-05-12T06:51:21.370Z,14.50
2018-05-12T06:53:48.909Z,14.50
2018-05-12T06:56:16.456Z,14.50
2018-05-12T06:58:44.010Z,14.60
2018-05-12T07:01:12.329Z,14.60
2018-05-12T07:03:39.865Z,14.60
2018-05-12T07:06:07.419Z,14.60
2018-05-12T07:08:35.728Z,14.80
2018-05-12T07:11:03.299Z,14.80
2018-05-12T07:13:30.874Z,14.90
2018-05-12T07:15:58.438Z,14.90
2018-05-12T07:18:26.011Z,14.90
2018-05-12T07:20:53.559Z,14.90
2018-05-12T07:23:21.121Z,15.10
2018-05-12T07:25:48.665Z,15.10
2018-05-12T07:28:16.201Z,15.10
2018-05-12T07:30:44.510Z,15.20
2018-05-12T07:33:12.084Z,15.10
2018-05-12T07:35:39.655Z,15.20
2018-05-12T07:38:07.237Z,15.30
2018-05-12T07:40:34.802Z,15.50
2018-05-12T07:43:02.353Z,15.60
2018-05-12T07:45:29.935Z,15.50
2018-05-12T07:47:57.556Z,15.50
2018-05-12T07:50:25.998Z,15.40
2018-05-12T07:52:54.339Z,15.40
2018-05-12T07:55:23.328Z,15.40
2018-05-12T07:57:50.922Z,15.50
2018-05-12T08:00:18.505Z,15.50
2018-05-12T08:02:46.051Z,15.50
2018-05-12T08:05:13.630Z,15.50
2018-05-12T08:07:41.226Z,15.50
2018-05-12T08:10:09.574Z,15.60
2018-05-12T08:12:37.117Z,15.60
2018-05-12T08:15:04.656Z,15.50
2018-05-12T08:17:32.223Z,15.50
2018-05-12T08:19:59.784Z,15.60
2018-05-12T08:22:27.361Z,15.60
2018-05-12T08:24:54.924Z,15.70
2018-05-12T08:27:23.454Z,15.80
2018-05-12T08:29:51.009Z,15.80
2018-05-12T08:32:18.550Z,16.00
2018-05-12T08:34:46.094Z,16.20
2018-05-12T08:37:13.659Z,16.30
2018-05-12T08:39:41.191Z,16.30
2018-05-12T08:42:08.733Z,16.40
2018-05-12T08:44:36.298Z,16.30
2018-05-12T08:47:04.645Z,16.10
2018-05-12T08:49:32.218Z,16.10
2018-05-12T08:51:59.797Z,16.00
2018-05-12T08:54:27.346Z,16.10
2018-05-12T08:56:54.890Z,16.10
2018-05-12T08:59:22.448Z,16.20
2018-05-12T09:01:49.995Z,16.30
2018-05-12T09:04:18.301Z,16.50
2018-05-12T09:06:45.867Z,16.50
2018-05-12T09:09:13.508Z,16.50
2018-05-12T09:11:41.054Z,16.40
2018-05-12T09:14:08.593Z,16.50
2018-05-12T09:16:36.129Z,16.60
2018-05-12T09:19:03.683Z,16.70
2018-05-12T09:21:31.227Z,17.00
2018-05-12T09:23:59.548Z,17.20
2018-05-12T09:26:27.092Z,17.20
2018-05-12T09:28:54.670Z,17.20
2018-05-12T09:31:22.233Z,17.30
2018-05-12T09:33:49.841Z,17.20
2018-05-12T09:36:17.391Z,17.20
2018-05-12T09:38:44.978Z,17.20
2018-05-12T09:41:12.594Z,17.30
2018-05-12T09:43:40.175Z,17.20
2018-05-12T09:46:07.735Z,17.20
2018-05-12T09:48:35.306Z,17.30
2018-05-12T09:51:02.892Z,17.40
2018-05-12T09:53:30.491Z,17.50
2018-05-12T09:55:58.071Z,17.70
2018-05-12T09:58:25.669Z,17.90
2018-05-12T10:00:53.267Z,18.10
2018-05-12T10:03:21.688Z,18.30
2018-05-12T10:05:49.200Z,18.20
2018-05-12T10:08:16.746Z,18.40
2018-05-12T10:10:44.368Z,18.50
2018-05-12T10:13:11.903Z,18.60
2018-05-12T10:15:39.472Z,18.60
2018-05-12T10:18:07.041Z,18.70
2018-05-12T10:20:34.631Z,18.80
2018-05-12T10:23:02.990Z,19.30
2018-05-12T10:25:30.628Z,19.30
2018-05-12T10:27:58.240Z,19.30
2018-05-12T10:30:25.773Z,19.40
2018-05-12T10:32:53.309Z,19.50
2018-05-12T10:35:20.910Z,19.70
2018-05-12T10:37:48.549Z,19.70
2018-05-12T10:40:16.127Z,20.00
2018-05-12T10:42:43.784Z,20.30
2018-05-12T10:45:11.334Z,20.50
2018-05-12T10:47:38.951Z,20.60
2018-05-12T10:50:06.538Z,20.90
2018-05-12T10:52:34.082Z,21.30
2018-05-12T10:55:01.670Z,21.50
2018-05-12T10:57:29.253Z,21.70
2018-05-12T10:59:56.808Z,21.80
2018-05-12T11:02:24.361Z,21.70
2018-05-12T11:04:51.906Z,21.60
2018-05-12T11:07:19.515Z,21.30
2018-05-12T11:09:47.205Z,21.80
2018-05-12T11:12:14.710Z,22.30
2018-05-12T11:14:42.300Z,22.10
2018-05-12T11:17:09.889Z,22.00
2018-05-12T11:19:37.453Z,22.10
2018-05-12T11:22:05.005Z,22.50
2018-05-12T11:24:33.542Z,22.30
2018-05-12T11:27:01.140Z,22.10
2018-05-12T11:29:28.716Z,22.00
2018-05-12T11:31:56.363Z,22.40
2018-05-12T11:34:23.910Z,22.10
2018-05-12T11:36:51.539Z,21.40
2018-05-12T11:39:19.077Z,21.50
2018-05-12T11:41:46.614Z,21.90
2018-05-12T11:44:14.179Z,22.20
2018-05-12T11:46:41.731Z,22.40
2018-05-12T11:49:09.293Z,22.60
2018-05-12T11:51:36.902Z,22.70
2018-05-12T11:54:04.554Z,22.80
2018-05-12T11:56:32.059Z,22.70
2018-05-12T11:59:00.393Z,23.10
2018-05-12T12:01:28.501Z,23.10
2018-05-12T12:03:56.052Z,23.00
2018-05-12T12:06:23.615Z,23.20
2018-05-12T12:08:51.200Z,23.60
2018-05-12T12:11:19.527Z,23.40
2018-05-12T12:13:47.068Z,23.40
2018-05-12T12:16:14.653Z,23.40
2018-05-12T12:18:42.233Z,23.50
2018-05-12T12:21:09.827Z,23.70
2018-05-12T12:23:37.404Z,23.80
2018-05-12T12:26:04.972Z,23.80
2018-05-12T12:28:33.343Z,23.40
2018-05-12T12:31:00.935Z,23.40
2018-05-12T12:33:28.614Z,23.50
2018-05-12T12:35:56.182Z,23.60
2018-05-12T12:38:23.853Z,23.10
2018-05-12T12:40:51.455Z,23.00
2018-05-12T12:43:19.058Z,23.30
2018-05-12T12:45:47.375Z,23.30
2018-05-12T12:48:14.914Z,23.40
2018-05-12T12:50:42.477Z,23.60
2018-05-12T12:53:11.330Z,23.40
2018-05-12T12:55:38.905Z,23.30
2018-05-12T12:58:06.467Z,23.50
2018-05-12T13:00:34.817Z,23.60
2018-05-12T13:03:02.385Z,23.60
2018-05-12T13:05:29.943Z,23.60
2018-05-12T13:07:57.523Z,23.40
2018-05-12T13:10:25.084Z,23.40
2018-05-12T13:12:52.689Z,23.30
2018-05-12T13:15:21.126Z,23.00
2018-05-12T13:17:48.673Z,23.00
2018-05-12T13:20:16.216Z,23.20
2018-05-12T13:22:44.566Z,23.40
2018-05-12T13:25:12.116Z,23.30
2018-05-12T13:27:39.673Z,23.60
2018-05-12T13:30:07.214Z,23.80
2018-05-12T13:32:34.763Z,24.10
2018-05-12T13:35:02.348Z,24.10
2018-05-12T13:37:29.940Z,24.00
2018-05-12T13:39:57.518Z,23.90
2018-05-12T13:42:25.099Z,23.90
2018-05-12T13:44:53.419Z,23.70
2018-05-12T13:47:20.985Z,23.60
2018-05-12T13:49:48.551Z,23.60
2018-05-12T13:52:16.131Z,23.60
2018-05-12T13:54:43.691Z,23.70
2018-05-12T13:57:11.241Z,23.80
2018-05-12T13:59:38.801Z,23.70
2018-05-12T14:02:06.401Z,23.60
2018-05-12T14:04:33.969Z,23.60
2018-05-12T14:07:01.539Z,23.60
2018-05-12T14:09:29.129Z,23.60
2018-05-12T14:11:56.701Z,23.70
2018-05-12T14:14:24.259Z,23.70
2018-05-12T14:16:52.601Z,23.90
2018-05-12T14:19:20.145Z,23.90
2018-05-12T14:21:47.715Z,23.70
2018-05-12T14:24:15.279Z,23.70
2018-05-12T14:26:42.846Z,23.90
2018-05-12T14:29:10.447Z,23.90
2018-05-12T14:31:38.822Z,23.70
2018-05-12T14:34:06.389Z,23.70
2018-05-12T14:36:33.987Z,23.70
2018-05-12T14:39:01.542Z,23.70
2018-05-12T14:41:29.884Z,23.70
2018-05-12T14:43:58.441Z,23.70
2018-05-12T14:46:26.079Z,23.50
2018-05-12T14:48:53.670Z,23.70
2018-05-12T14:51:21.226Z,23.80
2018-05-12T14:53:48.761Z,23.70
2018-05-12T14:56:17.109Z,23.10
2018-05-12T14:58:44.701Z,23.10
2018-05-12T15:01:13.021Z,22.80
2018-05-12T15:03:40.594Z,22.80
2018-05-12T15:06:08.148Z,22.60
2018-05-12T15:08:35.724Z,22.50
2018-05-12T15:11:03.317Z,22.50
2018-05-12T15:13:30.899Z,22.60
2018-05-12T15:15:59.246Z,22.70
2018-05-12T15:18:26.813Z,22.70
2018-05-12T15:20:54.400Z,22.80
2018-05-12T15:23:21.973Z,22.80
2018-05-12T15:25:49.547Z,22.80
2018-05-12T15:28:17.883Z,22.80
2018-05-12T15:30:45.467Z,22.80
2018-05-12T15:33:13.051Z,22.80
2018-05-12T15:35:40.593Z,22.50
2018-05-12T15:38:08.137Z,22.50
2018-05-12T15:40:35.687Z,22.40
2018-05-12T15:43:03.262Z,22.40
2018-05-12T15:45:30.814Z,22.40
2018-05-12T15:47:58.387Z,22.50
2018-05-12T15:50:25.967Z,22.40
2018-05-12T15:52:53.543Z,22.30
2018-05-12T15:55:21.897Z,22.40
2018-05-12T15:57:49.447Z,22.40
2018-05-12T16:00:16.991Z,22.40
2018-05-12T16:02:45.341Z,22.00
2018-05-12T16:05:12.903Z,22.00
2018-05-12T16:07:40.455Z,22.10
2018-05-12T16:10:08.122Z,22.10
2018-05-12T16:12:35.674Z,22.00
2018-05-12T16:15:04.073Z,21.80
2018-05-12T16:17:31.648Z,21.80
2018-05-12T16:19:59.205Z,22.00
2018-05-12T16:22:26.823Z,22.10
2018-05-12T16:24:54.369Z,22.30
2018-05-12T16:27:22.874Z,22.50
2018-05-12T16:29:50.431Z,22.30
2018-05-12T16:32:17.970Z,22.00
2018-05-12T16:34:45.543Z,21.90
2018-05-12T16:37:13.910Z,21.90
2018-05-12T16:39:41.435Z,21.90
2018-05-12T16:42:09.023Z,21.90
2018-05-12T16:44:36.672Z,21.90
2018-05-12T16:47:04.174Z,21.80
2018-05-12T16:49:31.750Z,21.70
2018-05-12T16:52:00.094Z,21.60
2018-05-12T16:54:27.678Z,21.60
2018-05-12T16:56:56.040Z,21.50
2018-05-12T16:59:23.609Z,21.50
2018-05-12T17:01:51.167Z,21.50
2018-05-12T17:04:18.739Z,21.40
2018-05-12T17:06:46.335Z,21.40
2018-05-12T17:09:14.669Z,21.40
2018-05-12T17:11:42.234Z,21.40
2018-05-12T17:14:09.820Z,21.30
2018-05-12T17:16:37.405Z,21.20
2018-05-12T17:19:05.769Z,21.20
2018-05-12T17:21:33.359Z,21.10
2018-05-12T17:24:00.939Z,21.10
2018-05-12T17:26:28.505Z,21.00
2018-05-12T17:28:56.083Z,21.00
2018-05-12T17:31:23.645Z,21.00
2018-05-12T17:33:51.243Z,21.00
2018-05-12T17:36:18.786Z,20.90
2018-05-12T17:38:46.335Z,20.90
2018-05-12T17:41:13.922Z,20.80
2018-05-12T17:43:41.466Z,20.80
2018-05-12T17:46:09.037Z,20.80
2018-05-12T17:48:36.622Z,20.70
2018-05-12T17:51:04.995Z,20.60
2018-05-12T17:53:32.615Z,20.50
2018-05-12T17:56:01.109Z,20.40
2018-05-12T17:58:28.686Z,20.40
2018-05-12T18:00:56.264Z,20.30
2018-05-12T18:03:24.089Z,20.30
2018-05-12T18:05:51.650Z,20.20
2018-05-12T18:08:20.032Z,20.20
2018-05-12T18:10:47.604Z,20.10
2018-05-12T18:13:15.946Z,20.10
2018-05-12T18:15:43.498Z,20.00
2018-05-12T18:18:11.037Z,20.00
2018-05-12T18:20:39.762Z,20.00
2018-05-12T18:23:07.477Z,19.90
2018-05-12T18:25:34.969Z,19.80
2018-05-12T18:28:03.132Z,19.80
2018-05-12T18:30:30.726Z,19.70
2018-05-12T18:32:58.311Z,19.70
2018-05-12T18:35:25.890Z,19.60
2018-05-12T18:37:53.533Z,19.60
2018-05-12T18:40:21.115Z,19.50
2018-05-12T18:42:49.854Z,19.50
2018-05-12T18:45:17.438Z,19.50
2018-05-12T18:47:45.039Z,19.40
2018-05-12T18:50:12.792Z,19.30
2018-05-12T18:52:40.372Z,19.30
2018-05-12T18:55:07.981Z,19.30
2018-05-12T18:57:35.617Z,19.20
2018-05-12T19:00:04.000Z,19.10
2018-05-12T19:02:31.566Z,19.00
2018-05-12T19:04:59.915Z,19.00
2018-05-12T19:07:27.486Z,19.00
2018-05-12T19:09:55.115Z,18.90
2018-05-12T19:12:22.691Z,18.80
2018-05-12T19:14:50.247Z,18.80
2018-05-12T19:17:17.821Z,18.70
2018-05-12T19:19:45.423Z,18.70
2018-05-12T19:22:12.999Z,18.60
2018-05-12T19:24:40.659Z,18.60
2018-05-12T19:27:08.239Z,18.50
2018-05-12T19:29:35.792Z,18.50
2018-05-12T19:32:04.172Z,18.40
2018-05-12T19:34:31.757Z,18.30
2018-05-12T19:36:59.382Z,18.20
2018-05-12T19:39:26.995Z,18.20
2018-05-12T19:41:54.585Z,18.10
2018-05-12T19:44:22.178Z,18.10
2018-05-12T19:46:49.741Z,18.00
2018-05-12T19:49:17.318Z,17.90
2018-05-12T19:51:44.905Z,17.90
2018-05-12T19:54:12.475Z,17.80
2018-05-12T19:56:40.079Z,17.80
2018-05-12T19:59:07.670Z,17.80
2018-05-12T20:01:35.231Z,17.70
2018-05-12T20:04:02.861Z,17.70
2018-05-12T20:06:30.442Z,17.60
2018-05-12T20:08:58.015Z,17.60
2018-05-12T20:11:25.576Z,17.60
2018-05-12T20:13:53.143Z,17.50
2018-05-12T20:16:20.686Z,17.40
2018-05-12T20:18:48.270Z,17.40
2018-05-12T20:21:15.899Z,17.30
2018-05-12T20:23:43.422Z,17.30
2018-05-12T20:26:10.981Z,17.30
2018-05-12T20:28:38.531Z,17.20
2018-05-12T20:31:06.330Z,17.20
2018-05-12T20:33:33.840Z,17.20
2018-05-12T20:36:01.376Z,17.10
2018-05-12T20:38:28.911Z,17.10
2018-05-12T20:40:56.461Z,17.00
2018-05-12T20:43:24.035Z,17.00
2018-05-12T20:45:51.604Z,17.00
2018-05-12T20:48:19.219Z,17.00
2018-05-12T20:50:46.810Z,17.00
2018-05-12T20:53:14.382Z,16.90
2018-05-12T20:55:41.988Z,16.90
2018-05-12T20:58:10.317Z,16.90
2018-05-12T21:00:37.914Z,16.90
2018-05-12T21:03:05.530Z,16.90
2018-05-12T21:05:33.015Z,16.80
2018-05-12T21:08:00.554Z,16.80
2018-05-12T21:10:28.097Z,16.70
2018-05-12T21:12:56.431Z,16.60
2018-05-12T21:15:24.054Z,16.70
2018-05-12T21:17:51.606Z,16.60
2018-05-12T21:20:19.953Z,16.50
2018-05-12T21:22:47.509Z,16.50
2018-05-12T21:25:15.084Z,16.40
2018-05-12T21:27:42.636Z,16.30
2018-05-12T21:30:10.215Z,16.30
2018-05-12T21:32:37.811Z,16.30
2018-05-12T21:35:06.155Z,16.20
2018-05-12T21:37:33.719Z,16.20
2018-05-12T21:40:02.068Z,16.20
2018-05-12T21:42:29.631Z,16.10
2018-05-12T21:44:57.211Z,16.10
2018-05-12T21:47:24.779Z,16.00
2018-05-12T21:49:52.359Z,16.00
2018-05-12T21:52:19.907Z,16.00
2018-05-12T21:54:47.603Z,16.00
2018-05-12T21:57:15.102Z,15.90
2018-05-12T21:59:42.672Z,15.90
2018-05-12T22:02:10.223Z,15.90
2018-05-12T22:04:38.543Z,15.80
2018-05-12T22:07:06.087Z,15.80
2018-05-12T22:09:33.651Z,15.80
2018-05-12T22:12:01.227Z,15.80
2018-05-12T22:14:28.795Z,15.70
2018-05-12T22:16:56.359Z,15.70
2018-05-12T22:19:23.940Z,15.70
2018-05-12T22:21:51.517Z,15.60
2018-05-12T22:24:19.067Z,15.60
2018-05-12T22:26:46.630Z,15.70
2018-05-12T22:29:14.188Z,15.60
2018-05-12T22:31:41.728Z,15.60
2018-05-12T22:34:09.281Z,15.60
2018-05-12T22:36:36.859Z,15.50
2018-05-12T22:39:04.446Z,15.50
2018-05-12T22:41:31.995Z,15.40
2018-05-12T22:43:59.610Z,15.40
2018-05-12T22:46:27.182Z,15.40
2018-05-12T22:48:55.526Z,15.30
2018-05-12T22:51:23.076Z,15.30
2018-05-12T22:53:50.620Z,15.30
2018-05-12T22:56:18.171Z,15.20
2018-05-12T22:58:46.483Z,15.10
2018-05-12T23:01:14.119Z,15.10
2018-05-12T23:03:41.676Z,15.10
2018-05-12T23:06:09.973Z,15.00
2018-05-12T23:08:37.519Z,15.00
2018-05-12T23:11:05.865Z,15.00
2018-05-12T23:13:33.443Z,15.00
2018-05-12T23:16:00.979Z,15.00
2018-05-12T23:18:28.542Z,15.00
2018-05-12T23:20:56.120Z,15.00
2018-05-12T23:23:23.681Z,15.00
2018-05-12T23:25:51.261Z,14.90
2018-05-12T23:28:18.853Z,14.90
2018-05-12T23:30:46.485Z,14.80
2018-05-12T23:33:14.047Z,14.80
2018-05-12T23:35:41.619Z,14.70
2018-05-12T23:38:09.176Z,14.70
2018-05-12T23:40:36.762Z,14.70
2018-05-12T23:43:04.306Z,14.60
2018-05-12T23:45:31.841Z,14.60
2018-05-12T23:47:59.394Z,14.60
2018-05-12T23:50:26.931Z,14.60
2018-05-12T23:52:55.243Z,14.60
2018-05-12T23:55:22.795Z,14.50
2018-05-12T23:57:50.353Z,14.50
